sensor_id;sensor_type;location;lat;lon;timestamp;P1;durP1;ratioP1;P2;durP2;ratioP2
1811;SDS011;904;47.814;11.134;2023-03-19T00:00:11;6.70;;;5.03;;
1811;SDS011;904;47.814;11.134;2023-03-19T00:02:39;8.93;;;5.80;;
1811;SDS011;904;47.814;11.134;2023-03-19T00:05:15;7.85;;;5.43;;
1811;SDS011;904;47.814;11.134;2023-03-19T00:07:48;10.88;;;4.97;;
1811;SDS011;904;47.814;11.134;2023-03-19T00:10:21;9.13;;;5.80;;
1811;SDS011;904;47.814;11.134;2023-03-19T00:12:54;9.15;;;5.88;;
1811;SDS011;904;47.814;11.134;2023-03-19T00:15:29;7.38;;;5.50;;
1811;SDS011;904;47.814;11.134;2023-03-19T00:17:57;12.65;;;6.53;;
1811;SDS011;904;47.814;11.134;2023-03-19T00:20:27;9.00;;;5.22;;
1811;SDS011;904;47.814;11.134;2023-03-19T00:23:00;9.70;;;6.30;;
1811;SDS011;904;47.814;11.134;2023-03-19T00:25:28;8.07;;;4.30;;
1811;SDS011;904;47.814;11.134;2023-03-19T00:27:56;11.70;;;5.82;;
1811;SDS011;904;47.814;11.134;2023-03-19T00:30:23;14.85;;;6.57;;
1811;SDS011;904;47.814;11.134;2023-03-19T00:32:54;10.00;;;5.00;;
1811;SDS011;904;47.814;11.134;2023-03-19T00:35:22;10.27;;;6.30;;
1811;SDS011;904;47.814;11.134;2023-03-19T00:37:53;10.57;;;5.55;;
1811;SDS011;904;47.814;11.134;2023-03-19T00:40:23;10.70;;;5.63;;
1811;SDS011;904;47.814;11.134;2023-03-19T00:42:51;9.23;;;6.03;;
1811;SDS011;904;47.814;11.134;2023-03-19T00:45:19;8.90;;;5.93;;
1811;SDS011;904;47.814;11.134;2023-03-19T00:47:56;11.38;;;6.90;;
1811;SDS011;904;47.814;11.134;2023-03-19T00:50:24;8.88;;;6.85;;
1811;SDS011;904;47.814;11.134;2023-03-19T00:52:55;9.50;;;6.30;;
1811;SDS011;904;47.814;11.134;2023-03-19T00:55:23;6.93;;;4.57;;
1811;SDS011;904;47.814;11.134;2023-03-19T00:57:51;12.80;;;5.55;;
1811;SDS011;904;47.814;11.134;2023-03-19T01:00:21;9.43;;;5.25;;
1811;SDS011;904;47.814;11.134;2023-03-19T01:02:48;7.50;;;4.38;;
1811;SDS011;904;47.814;11.134;2023-03-19T01:05:25;9.88;;;5.75;;
1811;SDS011;904;47.814;11.134;2023-03-19T01:07:54;9.30;;;5.28;;
1811;SDS011;904;47.814;11.134;2023-03-19T01:10:23;10.18;;;5.20;;
1811;SDS011;904;47.814;11.134;2023-03-19T01:12:53;8.20;;;5.00;;
1811;SDS011;904;47.814;11.134;2023-03-19T01:15:30;7.30;;;5.03;;
1811;SDS011;904;47.814;11.134;2023-03-19T01:18:00;8.32;;;4.85;;
1811;SDS011;904;47.814;11.134;2023-03-19T01:20:27;7.05;;;5.32;;
1811;SDS011;904;47.814;11.134;2023-03-19T01:22:59;7.65;;;4.80;;
1811;SDS011;904;47.814;11.134;2023-03-19T01:25:26;8.18;;;5.35;;
1811;SDS011;904;47.814;11.134;2023-03-19T01:27:54;7.53;;;5.38;;
1811;SDS011;904;47.814;11.134;2023-03-19T01:30:24;7.95;;;5.30;;
1811;SDS011;904;47.814;11.134;2023-03-19T01:32:54;9.27;;;6.00;;
1811;SDS011;904;47.814;11.134;2023-03-19T01:35:23;10.45;;;6.68;;
1811;SDS011;904;47.814;11.134;2023-03-19T01:37:57;8.75;;;6.22;;
1811;SDS011;904;47.814;11.134;2023-03-19T01:40:33;8.02;;;6.25;;
1811;SDS011;904;47.814;11.134;2023-03-19T01:45:54;6.95;;;5.53;;
1811;SDS011;904;47.814;11.134;2023-03-19T01:48:26;13.77;;;8.10;;
1811;SDS011;904;47.814;11.134;2023-03-19T01:50:55;12.93;;;5.60;;
1811;SDS011;904;47.814;11.134;2023-03-19T01:53:26;7.65;;;5.10;;
1811;SDS011;904;47.814;11.134;2023-03-19T01:55:56;10.45;;;6.78;;
1811;SDS011;904;47.814;11.134;2023-03-19T01:58:24;7.53;;;4.88;;
1811;SDS011;904;47.814;11.134;2023-03-19T02:00:56;7.20;;;4.63;;
1811;SDS011;904;47.814;11.134;2023-03-19T02:03:24;8.40;;;5.82;;
1811;SDS011;904;47.814;11.134;2023-03-19T02:05:57;9.27;;;5.95;;
1811;SDS011;904;47.814;11.134;2023-03-19T02:08:27;8.27;;;5.20;;
1811;SDS011;904;47.814;11.134;2023-03-19T02:10:55;6.85;;;4.68;;
1811;SDS011;904;47.814;11.134;2023-03-19T02:13:24;7.10;;;4.70;;
1811;SDS011;904;47.814;11.134;2023-03-19T02:15:52;7.35;;;5.13;;
1811;SDS011;904;47.814;11.134;2023-03-19T02:21:04;15.75;;;6.32;;
1811;SDS011;904;47.814;11.134;2023-03-19T02:23:35;10.25;;;7.80;;
1811;SDS011;904;47.814;11.134;2023-03-19T02:26:08;7.38;;;6.30;;
1811;SDS011;904;47.814;11.134;2023-03-19T02:28:42;9.57;;;6.93;;
1811;SDS011;904;47.814;11.134;2023-03-19T02:31:10;8.25;;;5.18;;
1811;SDS011;904;47.814;11.134;2023-03-19T02:33:42;11.95;;;7.15;;
1811;SDS011;904;47.814;11.134;2023-03-19T02:36:11;9.50;;;6.82;;
1811;SDS011;904;47.814;11.134;2023-03-19T02:38:41;10.20;;;6.57;;
1811;SDS011;904;47.814;11.134;2023-03-19T02:41:12;10.27;;;5.00;;
1811;SDS011;904;47.814;11.134;2023-03-19T02:43:39;5.85;;;4.60;;
1811;SDS011;904;47.814;11.134;2023-03-19T02:46:08;6.88;;;4.85;;
1811;SDS011;904;47.814;11.134;2023-03-19T02:48:42;7.68;;;4.90;;
1811;SDS011;904;47.814;11.134;2023-03-19T02:51:09;14.05;;;5.90;;
1811;SDS011;904;47.814;11.134;2023-03-19T02:53:38;7.20;;;4.88;;
1811;SDS011;904;47.814;11.134;2023-03-19T02:56:06;7.00;;;4.45;;
1811;SDS011;904;47.814;11.134;2023-03-19T02:58:35;7.55;;;4.25;;
1811;SDS011;904;47.814;11.134;2023-03-19T03:01:03;9.27;;;4.43;;
1811;SDS011;904;47.814;11.134;2023-03-19T03:03:32;5.90;;;3.70;;
1811;SDS011;904;47.814;11.134;2023-03-19T03:06:00;4.57;;;3.67;;
1811;SDS011;904;47.814;11.134;2023-03-19T03:08:28;7.13;;;4.10;;
1811;SDS011;904;47.814;11.134;2023-03-19T03:10:56;5.90;;;3.70;;
1811;SDS011;904;47.814;11.134;2023-03-19T03:13:28;8.85;;;3.38;;
1811;SDS011;904;47.814;11.134;2023-03-19T03:15:58;4.90;;;3.50;;
1811;SDS011;904;47.814;11.134;2023-03-19T03:18:26;8.07;;;3.88;;
1811;SDS011;904;47.814;11.134;2023-03-19T03:20:54;8.52;;;4.85;;
1811;SDS011;904;47.814;11.134;2023-03-19T03:23:24;7.30;;;4.60;;
1811;SDS011;904;47.814;11.134;2023-03-19T03:25:52;7.22;;;4.32;;
1811;SDS011;904;47.814;11.134;2023-03-19T03:28:22;8.75;;;4.55;;
1811;SDS011;904;47.814;11.134;2023-03-19T03:30:56;7.07;;;5.15;;
1811;SDS011;904;47.814;11.134;2023-03-19T03:33:31;11.65;;;4.22;;
1811;SDS011;904;47.814;11.134;2023-03-19T03:36:04;9.13;;;4.63;;
1811;SDS011;904;47.814;11.134;2023-03-19T03:38:40;6.43;;;4.53;;
1811;SDS011;904;47.814;11.134;2023-03-19T03:41:10;6.18;;;4.55;;
1811;SDS011;904;47.814;11.134;2023-03-19T03:43:38;6.63;;;4.45;;
1811;SDS011;904;47.814;11.134;2023-03-19T03:46:08;7.18;;;3.58;;
1811;SDS011;904;47.814;11.134;2023-03-19T03:48:37;8.45;;;4.50;;
1811;SDS011;904;47.814;11.134;2023-03-19T03:51:05;5.68;;;4.20;;
1811;SDS011;904;47.814;11.134;2023-03-19T03:53:42;5.97;;;3.72;;
1811;SDS011;904;47.814;11.134;2023-03-19T03:56:12;6.25;;;3.65;;
1811;SDS011;904;47.814;11.134;2023-03-19T03:58:40;5.95;;;4.20;;
1811;SDS011;904;47.814;11.134;2023-03-19T04:01:12;8.85;;;4.50;;
1811;SDS011;904;47.814;11.134;2023-03-19T04:03:46;6.18;;;4.50;;
1811;SDS011;904;47.814;11.134;2023-03-19T04:06:21;7.47;;;4.40;;
1811;SDS011;904;47.814;11.134;2023-03-19T04:08:59;8.23;;;4.38;;
1811;SDS011;904;47.814;11.134;2023-03-19T04:11:32;7.57;;;4.30;;
1811;SDS011;904;47.814;11.134;2023-03-19T04:13:59;8.07;;;4.47;;
1811;SDS011;904;47.814;11.134;2023-03-19T04:16:30;5.65;;;3.65;;
1811;SDS011;904;47.814;11.134;2023-03-19T04:19:00;7.13;;;3.42;;
1811;SDS011;904;47.814;11.134;2023-03-19T04:21:28;4.65;;;2.92;;
1811;SDS011;904;47.814;11.134;2023-03-19T04:23:56;4.85;;;3.40;;
1811;SDS011;904;47.814;11.134;2023-03-19T04:26:24;5.20;;;3.30;;
1811;SDS011;904;47.814;11.134;2023-03-19T04:28:56;5.32;;;3.97;;
1811;SDS011;904;47.814;11.134;2023-03-19T04:31:24;6.40;;;3.80;;
1811;SDS011;904;47.814;11.134;2023-03-19T04:33:54;4.90;;;4.30;;
1811;SDS011;904;47.814;11.134;2023-03-19T04:36:22;6.55;;;4.07;;
1811;SDS011;904;47.814;11.134;2023-03-19T04:38:52;3.80;;;2.72;;
1811;SDS011;904;47.814;11.134;2023-03-19T04:41:24;5.00;;;3.30;;
1811;SDS011;904;47.814;11.134;2023-03-19T04:43:52;4.72;;;2.70;;
1811;SDS011;904;47.814;11.134;2023-03-19T04:46:25;5.47;;;4.10;;
1811;SDS011;904;47.814;11.134;2023-03-19T04:49:00;6.25;;;3.70;;
1811;SDS011;904;47.814;11.134;2023-03-19T04:51:28;5.00;;;3.50;;
1811;SDS011;904;47.814;11.134;2023-03-19T04:53:56;7.43;;;3.25;;
1811;SDS011;904;47.814;11.134;2023-03-19T04:56:24;6.85;;;3.90;;
1811;SDS011;904;47.814;11.134;2023-03-19T04:58:52;9.27;;;3.85;;
1811;SDS011;904;47.814;11.134;2023-03-19T05:01:20;5.47;;;3.35;;
1811;SDS011;904;47.814;11.134;2023-03-19T05:03:53;6.65;;;3.95;;
1811;SDS011;904;47.814;11.134;2023-03-19T05:06:22;5.32;;;3.45;;
1811;SDS011;904;47.814;11.134;2023-03-19T05:08:53;6.55;;;4.15;;
1811;SDS011;904;47.814;11.134;2023-03-19T05:11:23;5.72;;;3.65;;
1811;SDS011;904;47.814;11.134;2023-03-19T05:13:53;6.05;;;3.33;;
1811;SDS011;904;47.814;11.134;2023-03-19T05:16:25;6.45;;;3.90;;
1811;SDS011;904;47.814;11.134;2023-03-19T05:18:53;6.50;;;3.33;;
1811;SDS011;904;47.814;11.134;2023-03-19T05:21:23;6.18;;;3.00;;
1811;SDS011;904;47.814;11.134;2023-03-19T05:23:51;6.03;;;3.70;;
1811;SDS011;904;47.814;11.134;2023-03-19T05:26:19;5.65;;;3.10;;
1811;SDS011;904;47.814;11.134;2023-03-19T05:28:47;5.38;;;3.22;;
1811;SDS011;904;47.814;11.134;2023-03-19T05:31:15;6.50;;;3.80;;
1811;SDS011;904;47.814;11.134;2023-03-19T05:33:45;9.60;;;3.10;;
1811;SDS011;904;47.814;11.134;2023-03-19T05:36:16;5.97;;;3.28;;
1811;SDS011;904;47.814;11.134;2023-03-19T05:38:49;6.32;;;3.30;;
1811;SDS011;904;47.814;11.134;2023-03-19T05:41:21;5.78;;;3.50;;
1811;SDS011;904;47.814;11.134;2023-03-19T05:43:50;6.80;;;3.60;;
1811;SDS011;904;47.814;11.134;2023-03-19T05:46:18;9.52;;;3.88;;
1811;SDS011;904;47.814;11.134;2023-03-19T05:48:49;5.15;;;3.20;;
1811;SDS011;904;47.814;11.134;2023-03-19T05:54:01;5.60;;;2.95;;
1811;SDS011;904;47.814;11.134;2023-03-19T05:56:34;7.13;;;3.78;;
1811;SDS011;904;47.814;11.134;2023-03-19T05:59:04;5.13;;;3.38;;
1811;SDS011;904;47.814;11.134;2023-03-19T06:01:32;6.72;;;3.38;;
1811;SDS011;904;47.814;11.134;2023-03-19T06:04:05;7.60;;;3.88;;
1811;SDS011;904;47.814;11.134;2023-03-19T06:06:33;14.40;;;4.68;;
1811;SDS011;904;47.814;11.134;2023-03-19T06:09:03;14.05;;;4.88;;
1811;SDS011;904;47.814;11.134;2023-03-19T06:11:31;7.85;;;3.75;;
1811;SDS011;904;47.814;11.134;2023-03-19T06:13:58;5.70;;;3.30;;
1811;SDS011;904;47.814;11.134;2023-03-19T06:16:31;4.88;;;3.22;;
1811;SDS011;904;47.814;11.134;2023-03-19T06:19:08;7.05;;;3.63;;
1811;SDS011;904;47.814;11.134;2023-03-19T06:21:37;5.43;;;3.33;;
1811;SDS011;904;47.814;11.134;2023-03-19T06:24:07;3.88;;;3.03;;
1811;SDS011;904;47.814;11.134;2023-03-19T06:26:35;8.05;;;3.70;;
1811;SDS011;904;47.814;11.134;2023-03-19T06:29:05;6.53;;;3.17;;
1811;SDS011;904;47.814;11.134;2023-03-19T06:31:33;6.60;;;3.50;;
1811;SDS011;904;47.814;11.134;2023-03-19T06:34:06;4.65;;;3.10;;
1811;SDS011;904;47.814;11.134;2023-03-19T06:36:36;9.75;;;3.30;;
1811;SDS011;904;47.814;11.134;2023-03-19T06:39:10;3.88;;;2.33;;
1811;SDS011;904;47.814;11.134;2023-03-19T06:41:38;5.22;;;2.92;;
1811;SDS011;904;47.814;11.134;2023-03-19T06:44:06;7.00;;;3.72;;
1811;SDS011;904;47.814;11.134;2023-03-19T06:46:34;4.47;;;3.00;;
1811;SDS011;904;47.814;11.134;2023-03-19T06:49:08;4.90;;;3.28;;
1811;SDS011;904;47.814;11.134;2023-03-19T06:51:36;5.22;;;3.90;;
1811;SDS011;904;47.814;11.134;2023-03-19T06:54:05;4.97;;;3.80;;
1811;SDS011;904;47.814;11.134;2023-03-19T06:56:35;6.00;;;3.60;;
1811;SDS011;904;47.814;11.134;2023-03-19T06:59:22;5.80;;;4.18;;
1811;SDS011;904;47.814;11.134;2023-03-19T07:01:50;5.82;;;3.10;;
1811;SDS011;904;47.814;11.134;2023-03-19T07:04:20;7.03;;;3.65;;
1811;SDS011;904;47.814;11.134;2023-03-19T07:06:53;5.93;;;3.65;;
1811;SDS011;904;47.814;11.134;2023-03-19T07:09:21;6.20;;;4.10;;
1811;SDS011;904;47.814;11.134;2023-03-19T07:11:53;8.27;;;3.85;;
1811;SDS011;904;47.814;11.134;2023-03-19T07:14:20;4.45;;;3.50;;
1811;SDS011;904;47.814;11.134;2023-03-19T07:16:53;5.55;;;3.05;;
1811;SDS011;904;47.814;11.134;2023-03-19T07:19:23;6.97;;;3.40;;
1811;SDS011;904;47.814;11.134;2023-03-19T07:21:56;4.60;;;3.00;;
1811;SDS011;904;47.814;11.134;2023-03-19T07:24:24;6.75;;;3.00;;
1811;SDS011;904;47.814;11.134;2023-03-19T07:26:53;8.40;;;3.90;;
1811;SDS011;904;47.814;11.134;2023-03-19T07:29:24;6.38;;;3.45;;
1811;SDS011;904;47.814;11.134;2023-03-19T07:31:51;6.90;;;3.80;;
1811;SDS011;904;47.814;11.134;2023-03-19T07:34:20;7.18;;;4.18;;
1811;SDS011;904;47.814;11.134;2023-03-19T07:36:48;6.07;;;4.07;;
1811;SDS011;904;47.814;11.134;2023-03-19T07:39:17;13.07;;;5.18;;
1811;SDS011;904;47.814;11.134;2023-03-19T07:41:50;6.57;;;4.28;;
1811;SDS011;904;47.814;11.134;2023-03-19T07:44:25;6.18;;;3.35;;
1811;SDS011;904;47.814;11.134;2023-03-19T07:46:52;7.60;;;3.95;;
1811;SDS011;904;47.814;11.134;2023-03-19T07:49:21;9.10;;;3.92;;
1811;SDS011;904;47.814;11.134;2023-03-19T07:51:54;5.15;;;3.65;;
1811;SDS011;904;47.814;11.134;2023-03-19T07:54:26;5.88;;;3.22;;
1811;SDS011;904;47.814;11.134;2023-03-19T07:56:57;8.55;;;4.28;;
1811;SDS011;904;47.814;11.134;2023-03-19T07:59:26;10.88;;;4.28;;
1811;SDS011;904;47.814;11.134;2023-03-19T08:01:59;5.45;;;3.47;;
1811;SDS011;904;47.814;11.134;2023-03-19T08:04:29;8.23;;;3.20;;
1811;SDS011;904;47.814;11.134;2023-03-19T08:06:58;6.05;;;3.53;;
1811;SDS011;904;47.814;11.134;2023-03-19T08:09:26;5.00;;;3.50;;
1811;SDS011;904;47.814;11.134;2023-03-19T08:11:54;4.07;;;3.67;;
1811;SDS011;904;47.814;11.134;2023-03-19T08:14:22;6.50;;;3.38;;
1811;SDS011;904;47.814;11.134;2023-03-19T08:16:51;7.15;;;3.90;;
1811;SDS011;904;47.814;11.134;2023-03-19T08:19:21;7.40;;;3.05;;
1811;SDS011;904;47.814;11.134;2023-03-19T08:21:54;8.20;;;3.67;;
1811;SDS011;904;47.814;11.134;2023-03-19T08:24:24;8.23;;;4.53;;
1811;SDS011;904;47.814;11.134;2023-03-19T08:26:52;5.35;;;4.18;;
1811;SDS011;904;47.814;11.134;2023-03-19T08:29:19;6.50;;;4.03;;
1811;SDS011;904;47.814;11.134;2023-03-19T08:31:52;8.40;;;5.47;;
1811;SDS011;904;47.814;11.134;2023-03-19T08:34:29;8.30;;;5.47;;
1811;SDS011;904;47.814;11.134;2023-03-19T08:36:56;10.68;;;6.45;;
1811;SDS011;904;47.814;11.134;2023-03-19T08:39:29;6.55;;;4.72;;
1811;SDS011;904;47.814;11.134;2023-03-19T08:42:00;6.80;;;4.90;;
1811;SDS011;904;47.814;11.134;2023-03-19T08:44:27;6.80;;;4.13;;
1811;SDS011;904;47.814;11.134;2023-03-19T08:47:00;6.43;;;4.40;;
1811;SDS011;904;47.814;11.134;2023-03-19T08:49:28;4.40;;;3.97;;
1811;SDS011;904;47.814;11.134;2023-03-19T08:51:55;6.80;;;3.90;;
1811;SDS011;904;47.814;11.134;2023-03-19T08:54:23;4.93;;;3.60;;
1811;SDS011;904;47.814;11.134;2023-03-19T08:56:51;5.57;;;3.40;;
1811;SDS011;904;47.814;11.134;2023-03-19T08:59:18;5.77;;;3.80;;
1811;SDS011;904;47.814;11.134;2023-03-19T09:01:51;4.80;;;2.93;;
1811;SDS011;904;47.814;11.134;2023-03-19T09:04:20;5.90;;;3.63;;
1811;SDS011;904;47.814;11.134;2023-03-19T09:06:48;5.80;;;3.47;;
1811;SDS011;904;47.814;11.134;2023-03-19T09:09:16;5.93;;;3.80;;
1811;SDS011;904;47.814;11.134;2023-03-19T09:11:44;6.53;;;3.80;;
1811;SDS011;904;47.814;11.134;2023-03-19T09:14:11;5.97;;;3.60;;
1811;SDS011;904;47.814;11.134;2023-03-19T09:16:41;4.73;;;3.60;;
1811;SDS011;904;47.814;11.134;2023-03-19T09:19:08;4.83;;;3.07;;
1811;SDS011;904;47.814;11.134;2023-03-19T09:21:37;6.03;;;3.70;;
1811;SDS011;904;47.814;11.134;2023-03-19T09:24:05;9.67;;;4.07;;
1811;SDS011;904;47.814;11.134;2023-03-19T09:26:32;4.67;;;3.10;;
1811;SDS011;904;47.814;11.134;2023-03-19T09:29:00;4.80;;;3.23;;
1811;SDS011;904;47.814;11.134;2023-03-19T09:31:27;5.40;;;3.33;;
1811;SDS011;904;47.814;11.134;2023-03-19T09:33:55;4.13;;;3.13;;
1811;SDS011;904;47.814;11.134;2023-03-19T09:36:22;5.80;;;2.67;;
1811;SDS011;904;47.814;11.134;2023-03-19T09:38:51;4.33;;;3.20;;
1811;SDS011;904;47.814;11.134;2023-03-19T09:41:19;5.33;;;3.63;;
1811;SDS011;904;47.814;11.134;2023-03-19T09:43:58;7.40;;;3.67;;
1811;SDS011;904;47.814;11.134;2023-03-19T09:46:29;6.07;;;3.67;;
1811;SDS011;904;47.814;11.134;2023-03-19T09:49:03;6.93;;;3.53;;
1811;SDS011;904;47.814;11.134;2023-03-19T09:51:40;4.17;;;3.10;;
1811;SDS011;904;47.814;11.134;2023-03-19T09:54:24;9.67;;;2.93;;
1811;SDS011;904;47.814;11.134;2023-03-19T09:56:55;3.83;;;2.83;;
1811;SDS011;904;47.814;11.134;2023-03-19T09:59:25;6.83;;;3.07;;
1811;SDS011;904;47.814;11.134;2023-03-19T10:01:56;4.87;;;2.97;;
1811;SDS011;904;47.814;11.134;2023-03-19T10:04:36;7.50;;;2.70;;
1811;SDS011;904;47.814;11.134;2023-03-19T10:07:13;8.20;;;2.93;;
1811;SDS011;904;47.814;11.134;2023-03-19T10:09:56;5.37;;;2.50;;
1811;SDS011;904;47.814;11.134;2023-03-19T10:12:37;4.30;;;2.73;;
1811;SDS011;904;47.814;11.134;2023-03-19T10:15:18;4.87;;;3.30;;
1811;SDS011;904;47.814;11.134;2023-03-19T10:17:59;4.90;;;3.30;;
1811;SDS011;904;47.814;11.134;2023-03-19T10:20:39;5.70;;;3.60;;
1811;SDS011;904;47.814;11.134;2023-03-19T10:23:19;5.33;;;3.00;;
1811;SDS011;904;47.814;11.134;2023-03-19T10:26:08;4.10;;;2.70;;
1811;SDS011;904;47.814;11.134;2023-03-19T10:28:37;5.20;;;3.20;;
1811;SDS011;904;47.814;11.134;2023-03-19T10:31:13;5.10;;;3.37;;
1811;SDS011;904;47.814;11.134;2023-03-19T10:33:51;4.90;;;3.23;;
1811;SDS011;904;47.814;11.134;2023-03-19T10:36:42;6.63;;;2.93;;
1811;SDS011;904;47.814;11.134;2023-03-19T10:39:09;6.80;;;3.57;;
1811;SDS011;904;47.814;11.134;2023-03-19T10:41:45;5.20;;;2.90;;
1811;SDS011;904;47.814;11.134;2023-03-19T10:44:20;5.30;;;3.27;;
1811;SDS011;904;47.814;11.134;2023-03-19T10:46:56;5.00;;;3.30;;
1811;SDS011;904;47.814;11.134;2023-03-19T10:49:35;4.90;;;2.33;;
1811;SDS011;904;47.814;11.134;2023-03-19T10:52:03;5.53;;;3.33;;
1811;SDS011;904;47.814;11.134;2023-03-19T10:54:32;6.20;;;2.53;;
1811;SDS011;904;47.814;11.134;2023-03-19T10:57:17;5.13;;;3.03;;
1811;SDS011;904;47.814;11.134;2023-03-19T10:59:48;7.47;;;2.90;;
1811;SDS011;904;47.814;11.134;2023-03-19T11:02:16;6.70;;;2.40;;
1811;SDS011;904;47.814;11.134;2023-03-19T11:04:44;6.73;;;2.93;;
1811;SDS011;904;47.814;11.134;2023-03-19T11:07:13;5.27;;;2.90;;
1811;SDS011;904;47.814;11.134;2023-03-19T11:09:44;3.87;;;2.70;;
1811;SDS011;904;47.814;11.134;2023-03-19T11:12:17;4.27;;;2.80;;
1811;SDS011;904;47.814;11.134;2023-03-19T11:14:47;4.63;;;2.93;;
1811;SDS011;904;47.814;11.134;2023-03-19T11:17:19;4.10;;;2.83;;
1811;SDS011;904;47.814;11.134;2023-03-19T11:19:49;6.17;;;2.80;;
1811;SDS011;904;47.814;11.134;2023-03-19T11:22:21;5.20;;;2.87;;
1811;SDS011;904;47.814;11.134;2023-03-19T11:24:53;5.17;;;3.37;;
1811;SDS011;904;47.814;11.134;2023-03-19T11:27:30;5.03;;;2.90;;
1811;SDS011;904;47.814;11.134;2023-03-19T11:30:02;4.47;;;3.00;;
1811;SDS011;904;47.814;11.134;2023-03-19T11:35:37;4.00;;;2.90;;
1811;SDS011;904;47.814;11.134;2023-03-19T11:38:12;9.10;;;2.77;;
1811;SDS011;904;47.814;11.134;2023-03-19T11:40:49;4.27;;;3.40;;
1811;SDS011;904;47.814;11.134;2023-03-19T11:43:30;4.70;;;3.10;;
1811;SDS011;904;47.814;11.134;2023-03-19T11:46:15;4.87;;;2.87;;
1811;SDS011;904;47.814;11.134;2023-03-19T11:49:00;6.13;;;2.93;;
1811;SDS011;904;47.814;11.134;2023-03-19T11:51:41;6.53;;;3.20;;
1811;SDS011;904;47.814;11.134;2023-03-19T11:54:19;9.10;;;3.30;;
1811;SDS011;904;47.814;11.134;2023-03-19T11:56:50;7.30;;;3.47;;
1811;SDS011;904;47.814;11.134;2023-03-19T11:59:35;5.80;;;2.80;;
1811;SDS011;904;47.814;11.134;2023-03-19T12:05:20;4.47;;;3.03;;
1811;SDS011;904;47.814;11.134;2023-03-19T12:07:58;4.50;;;2.87;;
1811;SDS011;904;47.814;11.134;2023-03-19T12:10:41;4.40;;;3.67;;
1811;SDS011;904;47.814;11.134;2023-03-19T12:13:24;6.90;;;3.00;;
1811;SDS011;904;47.814;11.134;2023-03-19T12:16:04;5.50;;;3.10;;
1811;SDS011;904;47.814;11.134;2023-03-19T12:18:50;5.57;;;3.10;;
1811;SDS011;904;47.814;11.134;2023-03-19T12:21:40;4.30;;;2.83;;
1811;SDS011;904;47.814;11.134;2023-03-19T12:24:17;10.07;;;3.00;;
1811;SDS011;904;47.814;11.134;2023-03-19T12:26:54;6.30;;;3.20;;
1811;SDS011;904;47.814;11.134;2023-03-19T12:29:31;4.63;;;2.90;;
1811;SDS011;904;47.814;11.134;2023-03-19T12:32:15;4.73;;;2.83;;
1811;SDS011;904;47.814;11.134;2023-03-19T12:34:54;5.50;;;3.30;;
1811;SDS011;904;47.814;11.134;2023-03-19T12:37:25;5.63;;;2.63;;
1811;SDS011;904;47.814;11.134;2023-03-19T12:40:04;4.30;;;3.37;;
1811;SDS011;904;47.814;11.134;2023-03-19T12:42:48;4.40;;;2.97;;
1811;SDS011;904;47.814;11.134;2023-03-19T12:45:19;5.47;;;3.13;;
1811;SDS011;904;47.814;11.134;2023-03-19T12:47:55;8.60;;;3.27;;
1811;SDS011;904;47.814;11.134;2023-03-19T12:50:28;4.30;;;2.70;;
1811;SDS011;904;47.814;11.134;2023-03-19T12:53:03;3.73;;;2.70;;
1811;SDS011;904;47.814;11.134;2023-03-19T12:55:36;5.07;;;3.23;;
1811;SDS011;904;47.814;11.134;2023-03-19T12:58:11;4.60;;;3.23;;
1811;SDS011;904;47.814;11.134;2023-03-19T13:00:45;5.13;;;3.20;;
1811;SDS011;904;47.814;11.134;2023-03-19T13:03:20;5.97;;;3.27;;
1811;SDS011;904;47.814;11.134;2023-03-19T13:05:57;4.50;;;2.70;;
1811;SDS011;904;47.814;11.134;2023-03-19T13:08:30;5.73;;;2.97;;
1811;SDS011;904;47.814;11.134;2023-03-19T13:11:03;4.87;;;3.10;;
1811;SDS011;904;47.814;11.134;2023-03-19T13:13:38;4.00;;;2.80;;
1811;SDS011;904;47.814;11.134;2023-03-19T13:16:10;4.27;;;3.10;;
1811;SDS011;904;47.814;11.134;2023-03-19T13:18:49;3.83;;;3.00;;
1811;SDS011;904;47.814;11.134;2023-03-19T13:21:24;5.07;;;2.80;;
1811;SDS011;904;47.814;11.134;2023-03-19T13:23:58;3.93;;;2.37;;
1811;SDS011;904;47.814;11.134;2023-03-19T13:26:33;4.60;;;2.93;;
1811;SDS011;904;47.814;11.134;2023-03-19T13:29:06;6.10;;;3.50;;
1811;SDS011;904;47.814;11.134;2023-03-19T13:31:38;4.20;;;2.77;;
1811;SDS011;904;47.814;11.134;2023-03-19T13:34:16;4.20;;;2.87;;
1811;SDS011;904;47.814;11.134;2023-03-19T13:36:47;7.33;;;4.43;;
1811;SDS011;904;47.814;11.134;2023-03-19T13:39:20;6.23;;;3.27;;
1811;SDS011;904;47.814;11.134;2023-03-19T13:41:53;5.37;;;3.37;;
1811;SDS011;904;47.814;11.134;2023-03-19T13:44:32;6.33;;;2.90;;
1811;SDS011;904;47.814;11.134;2023-03-19T13:47:01;5.10;;;3.47;;
1811;SDS011;904;47.814;11.134;2023-03-19T13:50:09;6.17;;;3.50;;
1811;SDS011;904;47.814;11.134;2023-03-19T13:52:47;5.23;;;2.90;;
1811;SDS011;904;47.814;11.134;2023-03-19T13:55:30;4.80;;;2.80;;
1811;SDS011;904;47.814;11.134;2023-03-19T13:58:05;7.27;;;3.50;;
1811;SDS011;904;47.814;11.134;2023-03-19T14:00:55;6.73;;;3.40;;
1811;SDS011;904;47.814;11.134;2023-03-19T14:03:24;4.53;;;3.00;;
1811;SDS011;904;47.814;11.134;2023-03-19T14:05:55;5.37;;;3.73;;
1811;SDS011;904;47.814;11.134;2023-03-19T14:08:25;6.13;;;3.50;;
1811;SDS011;904;47.814;11.134;2023-03-19T14:10:54;6.13;;;3.80;;
1811;SDS011;904;47.814;11.134;2023-03-19T14:13:27;4.60;;;3.17;;
1811;SDS011;904;47.814;11.134;2023-03-19T14:16:03;6.40;;;3.43;;
1811;SDS011;904;47.814;11.134;2023-03-19T14:18:39;6.13;;;3.83;;
1811;SDS011;904;47.814;11.134;2023-03-19T14:21:12;5.60;;;3.37;;
1811;SDS011;904;47.814;11.134;2023-03-19T14:23:50;6.33;;;3.17;;
1811;SDS011;904;47.814;11.134;2023-03-19T14:26:18;6.10;;;3.60;;
1811;SDS011;904;47.814;11.134;2023-03-19T14:28:53;4.23;;;3.50;;
1811;SDS011;904;47.814;11.134;2023-03-19T14:31:34;4.30;;;3.20;;
1811;SDS011;904;47.814;11.134;2023-03-19T14:34:14;5.00;;;3.70;;
1811;SDS011;904;47.814;11.134;2023-03-19T14:36:48;4.07;;;2.77;;
1811;SDS011;904;47.814;11.134;2023-03-19T14:39:20;4.80;;;3.20;;
1811;SDS011;904;47.814;11.134;2023-03-19T14:41:55;5.20;;;3.13;;
1811;SDS011;904;47.814;11.134;2023-03-19T14:50:52;6.10;;;3.47;;
1811;SDS011;904;47.814;11.134;2023-03-19T14:53:39;4.37;;;3.57;;
1811;SDS011;904;47.814;11.134;2023-03-19T14:56:10;4.03;;;3.23;;
1811;SDS011;904;47.814;11.134;2023-03-19T14:58:49;4.73;;;3.40;;
1811;SDS011;904;47.814;11.134;2023-03-19T15:01:18;5.00;;;3.57;;
1811;SDS011;904;47.814;11.134;2023-03-19T15:03:50;6.60;;;3.93;;
1811;SDS011;904;47.814;11.134;2023-03-19T15:06:20;5.80;;;3.00;;
1811;SDS011;904;47.814;11.134;2023-03-19T15:08:50;6.83;;;3.60;;
1811;SDS011;904;47.814;11.134;2023-03-19T15:11:34;3.77;;;2.70;;
1811;SDS011;904;47.814;11.134;2023-03-19T15:14:26;6.40;;;3.40;;
1811;SDS011;904;47.814;11.134;2023-03-19T15:17:04;6.33;;;3.10;;
1811;SDS011;904;47.814;11.134;2023-03-19T15:19:35;4.37;;;3.10;;
1811;SDS011;904;47.814;11.134;2023-03-19T15:22:04;6.60;;;3.10;;
1811;SDS011;904;47.814;11.134;2023-03-19T15:24:39;6.70;;;3.27;;
1811;SDS011;904;47.814;11.134;2023-03-19T15:27:16;6.27;;;3.63;;
1811;SDS011;904;47.814;11.134;2023-03-19T15:29:46;6.50;;;3.63;;
1811;SDS011;904;47.814;11.134;2023-03-19T15:32:31;9.30;;;3.60;;
1811;SDS011;904;47.814;11.134;2023-03-19T15:35:00;5.23;;;3.10;;
1811;SDS011;904;47.814;11.134;2023-03-19T15:37:32;4.90;;;3.50;;
1811;SDS011;904;47.814;11.134;2023-03-19T15:40:06;5.07;;;3.70;;
1811;SDS011;904;47.814;11.134;2023-03-19T15:42:36;4.63;;;3.27;;
1811;SDS011;904;47.814;11.134;2023-03-19T15:45:07;4.30;;;3.10;;
1811;SDS011;904;47.814;11.134;2023-03-19T15:47:39;5.27;;;3.30;;
1811;SDS011;904;47.814;11.134;2023-03-19T15:50:11;4.30;;;3.17;;
1811;SDS011;904;47.814;11.134;2023-03-19T15:52:44;7.87;;;3.40;;
1811;SDS011;904;47.814;11.134;2023-03-19T15:55:20;4.67;;;3.80;;
1811;SDS011;904;47.814;11.134;2023-03-19T15:57:53;4.87;;;3.50;;
1811;SDS011;904;47.814;11.134;2023-03-19T16:00:23;6.27;;;3.50;;
1811;SDS011;904;47.814;11.134;2023-03-19T16:02:54;6.93;;;3.90;;
1811;SDS011;904;47.814;11.134;2023-03-19T16:05:23;5.90;;;3.60;;